Time;durP1;ratioP1;P1;durP2;ratioP2;P2;SDS_P1;SDS_P2;PMS_P1;PMS_P2;Temp;Humidity;BMP_temperature;BMP_pressure;BME280_temperature;BME280_humidity;BME280_pressure;Samples;Min_cycle;Max_cycle;Signal;HPM_P1;HPM_P2
2021/07/23 00:01:11;;;;;;;;;28.50;19.25;;;;;22.48;52.21;101483.56;4997523;28;45502;-69
2021/07/23 00:03:38;;;;;;;;;22.50;20.75;;;;;22.45;52.26;101478.63;5007804;28;45573;-72
2021/07/23 00:06:05;;;;;;;;;22.75;22.25;;;;;22.42;52.25;101480.88;5003584;28;45371;-72
2021/07/23 00:08:30;;;;;;;;;22.50;17.75;;;;;22.39;52.84;101481.31;4991784;28;45513;-72
2021/07/23 00:10:56;;;;;;;;;19.50;18.75;;;;;22.33;52.75;101474.91;5008290;28;45564;-73
2021/07/23 00:13:21;;;;;;;;;18.00;16.50;;;;;22.32;53.20;101476.75;5010526;28;47329;-73
2021/07/23 00:15:47;;;;;;;;;24.50;20.25;;;;;22.29;53.74;101471.78;5001418;28;45608;-73
2021/07/23 00:18:12;;;;;;;;;20.75;18.00;;;;;22.25;53.26;101472.41;5004147;28;45411;-72
2021/07/23 00:20:38;;;;;;;;;23.25;19.25;;;;;22.21;53.38;101468.50;5007173;28;45578;-70
2021/07/23 00:23:03;;;;;;;;;19.25;18.25;;;;;22.19;53.33;101473.22;4982420;28;47068;-69
2021/07/23 00:25:29;;;;;;;;;22.25;16.50;;;;;22.15;53.72;101469.28;5008847;28;45332;-72
2021/07/23 00:27:54;;;;;;;;;16.50;16.00;;;;;22.10;53.86;101468.03;5008529;28;45538;-70
2021/07/23 00:30:21;;;;;;;;;16.00;16.00;;;;;22.07;54.06;101460.38;5007448;28;45373;-73
2021/07/23 00:32:47;;;;;;;;;19.00;17.75;;;;;22.01;54.11;101463.09;5007103;28;45457;-73
2021/07/23 00:35:12;;;;;;;;;14.00;13.50;;;;;21.99;54.30;101462.47;5011564;28;45574;-72
2021/07/23 00:37:38;;;;;;;;;20.25;15.75;;;;;21.94;54.60;101462.28;5011896;28;45514;-72
2021/07/23 00:40:05;;;;;;;;;21.00;16.75;;;;;21.91;54.46;101458.13;5014452;28;45715;-72
2021/07/23 00:42:34;;;;;;;;;21.75;17.25;;;;;21.87;54.46;101457.69;4990412;28;47052;-69
2021/07/23 00:44:59;;;;;;;;;17.25;14.75;;;;;21.84;54.54;101452.75;5014310;28;45612;-73
2021/07/23 00:47:25;;;;;;;;;18.00;15.25;;;;;21.80;54.85;101448.78;5009174;28;45975;-73
2021/07/23 00:49:52;;;;;;;;;16.00;14.50;;;;;21.78;55.24;101452.72;5010981;28;45516;-73
2021/07/23 00:52:17;;;;;;;;;13.25;12.00;;;;;21.74;55.38;101451.50;5013471;28;45411;-73
2021/07/23 00:54:43;;;;;;;;;16.00;14.00;;;;;21.68;55.54;101443.19;5007339;28;45492;-72
2021/07/23 00:57:09;;;;;;;;;17.00;14.00;;;;;21.65;55.35;101448.16;5007863;28;45652;-70
2021/07/23 00:59:34;;;;;;;;;15.25;12.00;;;;;21.62;55.43;101449.41;5004716;28;45399;-73
2021/07/23 01:02:01;;;;;;;;;14.00;13.00;;;;;21.60;55.50;101440.72;5011415;28;45411;-73
2021/07/23 01:04:27;;;;;;;;;14.25;13.00;;;;;21.58;55.60;101439.25;5011808;28;45573;-73
2021/07/23 01:06:53;;;;;;;;;16.25;14.00;;;;;21.55;55.55;101437.81;5008999;28;45488;-73
2021/07/23 01:09:19;;;;;;;;;13.50;12.25;;;;;21.52;55.75;101432.84;5009877;28;46030;-69
2021/07/23 01:11:45;;;;;;;;;12.00;11.00;;;;;21.48;55.89;101432.41;4991779;28;47743;-69
2021/07/23 01:14:11;;;;;;;;;14.75;12.50;;;;;21.45;55.90;101432.00;4990671;28;45420;-68
2021/07/23 01:16:36;;;;;;;;;13.50;12.75;;;;;21.41;56.01;101420.84;5011824;28;45562;-70
2021/07/23 01:19:02;;;;;;;;;15.75;13.00;;;;;21.37;56.34;101424.94;5012523;28;45471;-72
2021/07/23 01:21:29;;;;;;;;;15.25;14.25;;;;;21.34;56.36;101422.66;5005413;28;45568;-73
2021/07/23 01:23:56;;;;;;;;;14.50;12.00;;;;;21.31;56.22;101417.66;5010311;28;45768;-69
2021/07/23 01:26:22;;;;;;;;;15.50;13.00;;;;;21.30;56.41;101423.25;5012938;28;50484;-72
2021/07/23 01:28:47;;;;;;;;;15.25;11.25;;;;;21.27;56.26;101428.00;5011083;28;45569;-73
2021/07/23 01:31:13;;;;;;;;;13.00;12.25;;;;;21.25;56.29;101422.00;5008148;28;46187;-73
2021/07/23 01:33:39;;;;;;;;;15.50;14.75;;;;;21.24;56.55;101417.69;5007522;28;45852;-72
2021/07/23 01:36:04;;;;;;;;;14.25;13.50;;;;;21.21;56.90;101420.75;5008201;28;45892;-73
2021/07/23 01:38:31;;;;;;;;;17.00;12.00;;;;;21.18;56.81;101413.09;5006865;28;45614;-70
2021/07/23 01:40:56;;;;;;;;;15.50;12.75;;;;;21.13;57.32;101407.50;5013098;28;46087;-70
2021/07/23 01:43:24;;;;;;;;;15.00;11.50;;;;;21.10;56.92;101415.97;5011393;28;45454;-70
2021/07/23 01:45:49;;;;;;;;;14.50;13.25;;;;;21.07;57.34;101418.22;5011730;28;45561;-69
2021/07/23 01:48:15;;;;;;;;;14.50;13.00;;;;;21.03;57.25;101413.25;5008384;28;45438;-70
2021/07/23 01:50:41;;;;;;;;;15.50;13.50;;;;;21.01;57.28;101414.50;5010245;28;46145;-69
2021/07/23 01:53:06;;;;;;;;;19.75;13.25;;;;;20.99;57.20;101411.19;5007484;28;45766;-70
2021/07/23 01:55:32;;;;;;;;;14.00;14.00;;;;;20.96;57.32;101406.22;5010985;28;45501;-72
2021/07/23 01:57:58;;;;;;;;;15.00;12.25;;;;;20.93;57.68;101403.94;5010788;28;45613;-73
2021/07/23 02:00:23;;;;;;;;;15.00;12.25;;;;;20.90;57.24;101398.97;5008603;28;45789;-72
2021/07/23 02:02:48;;;;;;;;;16.25;13.25;;;;;20.89;57.69;101405.34;5008507;28;45508;-71
2021/07/23 02:05:14;;;;;;;;;17.00;14.00;;;;;20.87;57.80;101397.50;5007721;28;45953;-69
2021/07/23 02:07:39;;;;;;;;;16.50;13.75;;;;;20.86;57.96;101400.41;5010997;28;45596;-72
2021/07/23 02:10:07;;;;;;;;;18.25;16.00;;;;;20.82;57.81;101394.56;5008446;28;46012;-73
2021/07/23 02:12:32;;;;;;;;;17.25;13.50;;;;;20.78;57.81;101388.78;5006021;28;45599;-72
2021/07/23 02:14:58;;;;;;;;;15.50;13.50;;;;;20.79;57.69;101394.97;5007884;28;45526;-72
2021/07/23 02:17:23;;;;;;;;;18.25;15.25;;;;;20.77;57.73;101397.88;5009572;28;45996;-73
2021/07/23 02:19:48;;;;;;;;;14.00;13.50;;;;;20.75;57.84;101393.75;5005421;28;46221;-73
2021/07/23 02:22:14;;;;;;;;;17.75;13.00;;;;;20.70;58.27;101391.66;5012216;28;45586;-69
2021/07/23 02:24:40;;;;;;;;;16.25;14.50;;;;;20.70;59.30;101401.59;5006879;28;46581;-69
2021/07/23 02:27:05;;;;;;;;;19.25;14.75;;;;;20.65;58.50;101394.13;5010104;28;45537;-73
2021/07/23 02:29:31;;;;;;;;;14.25;13.75;;;;;20.63;58.53;101400.72;5009031;28;47033;-73
2021/07/23 02:31:56;;;;;;;;;16.00;12.25;;;;;20.59;58.55;101398.41;5005499;28;45551;-69
2021/07/23 02:34:22;;;;;;;;;16.25;12.00;;;;;20.59;58.87;101395.72;4995073;28;45548;-73
2021/07/23 02:36:48;;;;;;;;;15.50;13.50;;;;;20.57;58.57;101389.75;4992802;28;47261;-73
2021/07/23 02:39:13;;;;;;;;;14.25;13.50;;;;;20.58;58.45;101398.63;5010961;28;45573;-73
2021/07/23 02:41:39;;;;;;;;;18.00;15.25;;;;;20.56;58.86;101403.38;5007794;28;45843;-73
2021/07/23 02:44:04;;;;;;;;;19.50;16.50;;;;;20.54;58.76;101391.97;5011739;28;45273;-69
2021/07/23 02:46:30;;;;;;;;;17.25;14.50;;;;;20.53;58.77;101395.69;5011476;28;45412;-68
2021/07/23 02:48:56;;;;;;;;;19.50;14.00;;;;;20.51;58.95;101395.88;5009411;28;45449;-72
2021/07/23 02:51:21;;;;;;;;;15.50;14.75;;;;;20.50;58.73;101390.69;5008197;28;45604;-73
2021/07/23 02:53:47;;;;;;;;;16.00;13.75;;;;;20.48;58.91;101388.22;5011941;28;45550;-70
2021/07/23 02:56:12;;;;;;;;;15.50;12.75;;;;;20.47;59.01;101380.34;5002900;28;45483;-70
2021/07/23 02:58:43;;;;;;;;;14.50;13.75;;;;;20.46;59.18;101384.09;5010923;28;45871;-73
2021/07/23 03:01:10;;;;;;;;;18.50;16.00;;;;;20.44;59.22;101375.41;4995010;28;46503;-69
2021/07/23 03:03:35;;;;;;;;;18.00;16.00;;;;;20.43;59.32;101368.38;5008341;28;45788;-69
2021/07/23 03:06:01;;;;;;;;;20.00;17.00;;;;;20.40;59.15;101370.44;5001285;28;45522;-72
2021/07/23 03:08:27;;;;;;;;;20.75;16.50;;;;;20.37;59.47;101370.81;5006391;28;46052;-70
2021/07/23 03:10:53;;;;;;;;;19.50;16.25;;;;;20.34;59.64;101363.16;5008896;28;45642;-72
2021/07/23 03:13:19;;;;;;;;;17.00;16.00;;;;;20.33;59.62;101368.75;5011039;28;45719;-72
2021/07/23 03:15:44;;;;;;;;;17.25;15.75;;;;;20.30;59.69;101374.47;5008664;28;45577;-70
2021/07/23 03:18:10;;;;;;;;;17.50;14.75;;;;;20.29;59.85;101367.47;5004844;28;46099;-73
2021/07/23 03:20:39;;;;;;;;;19.00;15.25;;;;;20.28;59.68;101366.66;5004030;28;45478;-72
2021/07/23 03:23:05;;;;;;;;;16.00;15.00;;;;;20.27;60.01;101370.34;5009211;28;45639;-72
2021/07/23 03:25:30;;;;;;;;;19.50;16.25;;;;;20.26;59.87;101370.56;5007202;28;45621;-69
2021/07/23 03:27:56;;;;;;;;;17.25;14.00;;;;;20.25;59.85;101369.72;4997046;28;47215;-71
2021/07/23 03:30:21;;;;;;;;;19.25;16.00;;;;;20.24;60.17;101365.38;5004821;28;45428;-69
2021/07/23 03:32:47;;;;;;;;;18.00;15.50;;;;;20.25;60.25;101367.06;5005331;28;45546;-69
2021/07/23 03:35:12;;;;;;;;;19.25;14.50;;;;;20.24;60.31;101364.56;5009877;28;45446;-69
2021/07/23 03:37:38;;;;;;;;;18.50;15.50;;;;;20.22;60.28;101367.41;5009355;28;45559;-73
2021/07/23 03:40:05;;;;;;;;;19.00;14.00;;;;;20.19;60.45;101365.97;5010657;28;45509;-69
2021/07/23 03:42:32;;;;;;;;;16.50;13.00;;;;;20.18;60.36;101366.19;5004607;28;45474;-69
2021/07/23 03:44:57;;;;;;;;;21.75;18.00;;;;;20.17;60.37;101367.19;5004596;28;45826;-68
2021/07/23 03:47:23;;;;;;;;;17.75;14.50;;;;;20.15;60.59;101361.19;5003582;28;45498;-70
2021/07/23 03:49:48;;;;;;;;;17.75;16.50;;;;;20.13;60.51;101357.91;5009475;28;45400;-69
2021/07/23 03:52:13;;;;;;;;;18.50;15.00;;;;;20.12;60.99;101351.69;5007853;28;45507;-73
2021/07/23 03:54:39;;;;;;;;;18.50;15.00;;;;;20.10;60.59;101343.03;5008256;28;45526;-69
2021/07/23 03:57:05;;;;;;;;;19.50;16.75;;;;;20.09;60.76;101335.16;5005612;28;45595;-73
2021/07/23 03:59:32;;;;;;;;;16.00;15.75;;;;;20.05;60.86;101326.66;5009738;28;45802;-73
2021/07/23 04:01:58;;;;;;;;;15.50;14.75;;;;;20.02;60.91;101320.88;5008255;28;45538;-73
2021/07/23 04:04:23;;;;;;;;;17.25;14.00;;;;;19.98;61.24;101315.09;5007756;28;45432;-72
2021/07/23 04:07:02;;;;;;;;;16.75;16.50;;;;;19.95;61.19;101302.03;5007810;28;45751;-71
2021/07/23 04:09:28;;;;;;;;;16.25;14.50;;;;;19.94;61.33;101309.28;5008117;28;45533;-70
2021/07/23 04:11:54;;;;;;;;;19.25;16.25;;;;;19.93;61.91;101302.25;5012252;28;45460;-72
2021/07/23 04:14:21;;;;;;;;;17.75;14.25;;;;;19.90;61.80;101304.50;5004832;28;45498;-74
2021/07/23 04:16:47;;;;;;;;;20.25;18.25;;;;;19.90;61.42;101308.00;5003296;28;46173;-73
2021/07/23 04:19:13;;;;;;;;;21.00;18.75;;;;;19.90;61.75;101299.94;5012311;28;45758;-71
2021/07/23 04:21:39;;;;;;;;;14.75;14.00;;;;;19.89;61.63;101297.47;5008152;28;45657;-72
2021/07/23 04:24:07;;;;;;;;;18.25;16.50;;;;;19.88;61.85;101310.06;5007289;28;45467;-68
2021/07/23 04:26:34;;;;;;;;;22.25;19.00;;;;;19.89;61.62;101310.88;5005981;28;45416;-71
2021/07/23 04:28:59;;;;;;;;;19.75;16.50;;;;;19.90;61.75;101308.00;5010352;28;45475;-68
2021/07/23 04:31:25;;;;;;;;;21.25;16.50;;;;;19.90;62.13;101308.00;5011593;28;45341;-68
2021/07/23 04:33:50;;;;;;;;;20.00;17.75;;;;;19.91;61.98;101301.63;5005317;28;45463;-73
2021/07/23 04:36:16;;;;;;;;;21.00;16.50;;;;;19.92;61.74;101302.44;5008104;28;46330;-71
2021/07/23 04:38:42;;;;;;;;;20.00;18.25;;;;;19.93;61.71;101298.72;5006240;28;45593;-71
2021/07/23 04:41:07;;;;;;;;;17.75;15.75;;;;;19.94;61.82;101308.44;5002136;28;45928;-73
2021/07/23 04:43:33;;;;;;;;;20.25;16.50;;;;;19.94;61.55;101301.22;5004317;28;45618;-73
2021/07/23 04:45:59;;;;;;;;;17.75;17.00;;;;;19.97;61.54;101305.34;5003626;28;45874;-69
2021/07/23 04:48:24;;;;;;;;;17.75;17.25;;;;;20.00;61.49;101299.59;5008044;28;45928;-69
2021/07/23 04:50:50;;;;;;;;;18.25;17.00;;;;;20.02;61.46;101302.09;5004425;28;45550;-70
2021/07/23 04:53:16;;;;;;;;;20.50;16.75;;;;;20.06;61.42;101306.03;5008735;28;45489;-73
2021/07/23 04:55:47;;;;;;;;;19.25;18.00;;;;;20.07;61.42;101299.63;5007133;28;46372;-71
2021/07/23 04:58:14;;;;;;;;;20.25;18.75;;;;;20.07;61.24;101296.97;5006336;28;45517;-71
2021/07/23 05:00:40;;;;;;;;;23.75;21.25;;;;;20.10;61.53;101304.59;5006618;28;45530;-71
2021/07/23 05:03:05;;;;;;;;;18.75;18.50;;;;;20.14;61.22;101308.56;5002989;28;45487;-72
2021/07/23 05:05:33;;;;;;;;;20.00;18.75;;;;;20.17;61.49;101310.84;5008464;28;45439;-69
2021/07/23 05:07:59;;;;;;;;;16.75;16.00;;;;;20.23;61.16;101309.19;4996472;28;45640;-71
2021/07/23 05:10:24;;;;;;;;;21.50;17.25;;;;;20.29;61.41;101311.94;5005138;28;45872;-69
2021/07/23 05:12:50;;;;;;;;;22.00;18.50;;;;;20.34;61.15;101311.34;4998838;28;45728;-70
2021/07/23 05:15:15;;;;;;;;;21.50;18.25;;;;;20.39;61.22;101314.25;5003887;28;45987;-71
2021/07/23 05:17:41;;;;;;;;;18.00;16.25;;;;;20.45;60.80;101305.41;5008116;28;45531;-68
2021/07/23 05:20:08;;;;;;;;;18.75;16.75;;;;;20.49;60.79;101306.63;5006321;28;45504;-70
2021/07/23 05:22:35;;;;;;;;;23.25;18.75;;;;;20.54;60.09;101306.03;5010471;28;45522;-71
2021/07/23 05:25:00;;;;;;;;;18.75;16.75;;;;;20.53;60.45;101293.66;5008133;28;46178;-74
2021/07/23 05:27:26;;;;;;;;;21.00;18.50;;;;;20.60;60.41;101299.91;5010204;28;45701;-71
2021/07/23 05:29:51;;;;;;;;;22.50;18.25;;;;;20.62;60.47;101297.81;5006885;28;45568;-71
2021/07/23 05:32:17;;;;;;;;;24.75;20.00;;;;;20.62;60.08;101300.50;5003887;28;45487;-70
2021/07/23 05:34:43;;;;;;;;;21.25;18.25;;;;;20.66;60.20;101296.41;5001994;28;46038;-71
2021/07/23 05:37:08;;;;;;;;;19.50;17.50;;;;;20.70;60.42;101294.97;5010401;28;45799;-72
2021/07/23 05:39:34;;;;;;;;;22.00;17.25;;;;;20.77;60.15;101285.09;5012043;28;45436;-70
2021/07/23 05:42:02;;;;;;;;;21.25;21.00;;;;;20.82;59.55;101295.19;5007279;28;45348;-71
2021/07/23 05:44:30;;;;;;;;;24.00;19.00;;;;;20.84;60.02;101293.13;5012458;28;45557;-72
2021/07/23 05:46:59;;;;;;;;;22.25;19.00;;;;;20.89;59.96;101292.53;5011440;28;45974;-72
2021/07/23 05:49:24;;;;;;;;;24.00;20.75;;;;;20.92;60.04;101294.78;5006546;28;45557;-71
2021/07/23 05:51:50;;;;;;;;;19.50;17.50;;;;;20.93;60.19;101288.41;5011551;28;45432;-71
2021/07/23 05:54:15;;;;;;;;;21.50;19.00;;;;;20.95;59.81;101291.72;4995468;28;47048;-69
2021/07/23 05:56:41;;;;;;;;;19.25;17.75;;;;;21.02;59.79;101281.81;5007363;28;45581;-69
2021/07/23 05:59:06;;;;;;;;;20.75;18.25;;;;;21.13;59.51;101278.50;5007475;28;45734;-69
2021/07/23 06:01:31;;;;;;;;;21.50;18.50;;;;;21.20;59.49;101278.50;5010172;28;45534;-72
2021/07/23 06:03:57;;;;;;;;;21.75;18.25;;;;;21.24;59.69;101277.91;5009340;28;45492;-71
2021/07/23 06:06:22;;;;;;;;;22.50;18.00;;;;;21.31;59.08;101272.50;5010557;28;45558;-71
2021/07/23 06:08:48;;;;;;;;;18.25;18.00;;;;;21.41;58.49;101269.44;5010634;28;45587;-69
2021/07/23 06:11:13;;;;;;;;;21.50;19.75;;;;;21.48;58.49;101267.56;5007084;28;45497;-70
2021/07/23 06:13:39;;;;;;;;;19.25;16.75;;;;;21.55;58.28;101259.50;5009903;28;45866;-72
2021/07/23 06:16:11;;;;;;;;;20.50;18.25;;;;;21.63;58.21;101254.72;5009635;28;45542;-69
2021/07/23 06:18:37;;;;;;;;;23.75;21.25;;;;;21.69;57.84;101253.06;5008579;28;45487;-69
2021/07/23 06:21:02;;;;;;;;;18.50;15.50;;;;;21.74;59.17;101242.50;5009964;28;45438;-70
2021/07/23 06:23:28;;;;;;;;;22.00;17.75;;;;;21.80;57.62;101246.19;5004081;28;46249;-69
2021/07/23 06:25:54;;;;;;;;;22.25;19.25;;;;;21.86;57.83;101242.69;5010902;28;45755;-72
2021/07/23 06:28:19;;;;;;;;;21.50;19.00;;;;;21.94;57.88;101241.63;5010971;28;45459;-69
2021/07/23 06:30:45;;;;;;;;;19.50;18.75;;;;;21.97;57.43;101239.31;5013401;28;45446;-71
2021/07/23 06:33:11;;;;;;;;;21.00;16.50;;;;;22.00;57.66;101238.06;4991682;28;45447;-70
2021/07/23 06:35:36;;;;;;;;;17.25;17.25;;;;;21.99;57.64;101250.69;5010129;28;46230;-71
2021/07/23 06:38:02;;;;;;;;;19.75;15.50;;;;;22.03;57.55;101235.78;5010146;28;45983;-70
2021/07/23 06:40:28;;;;;;;;;25.00;20.00;;;;;22.15;57.93;101241.31;5013427;28;45540;-70
2021/07/23 06:42:53;;;;;;;;;19.00;18.00;;;;;22.26;57.11;101229.91;5011708;28;45923;-70
2021/07/23 06:45:19;;;;;;;;;20.00;17.25;;;;;22.36;57.48;101229.44;5007116;28;45406;-71
2021/07/23 06:47:44;;;;;;;;;20.00;17.25;;;;;;;;5013545;28;45390;-69
2021/07/23 06:50:10;;;;;;;;;21.50;18.50;;;;;22.41;56.80;101232.31;5005287;28;45555;-71
2021/07/23 06:52:35;;;;;;;;;18.25;16.50;;;;;22.50;56.58;101231.03;5010440;28;46169;-73
2021/07/23 06:55:01;;;;;;;;;16.50;16.25;;;;;22.63;56.43;101234.69;5008418;28;45454;-71
2021/07/23 06:57:27;;;;;;;;;19.00;17.50;;;;;22.73;56.90;101233.16;5010012;28;45585;-72
2021/07/23 06:59:53;;;;;;;;;23.00;18.75;;;;;22.82;56.21;101222.91;5010658;28;46577;-70
2021/07/23 07:02:18;;;;;;;;;22.00;19.25;;;;;22.94;55.74;101231.94;5011404;28;45806;-70
2021/07/23 07:04:44;;;;;;;;;20.75;18.00;;;;;23.10;55.84;101229.81;5007777;28;45446;-73
2021/07/23 07:07:11;;;;;;;;;22.75;18.75;;;;;23.16;55.23;101234.31;5009796;28;47151;-71
2021/07/23 07:09:37;;;;;;;;;17.75;17.00;;;;;23.18;55.49;101221.44;5003433;28;45538;-71
2021/07/23 07:12:03;;;;;;;;;18.50;16.25;;;;;23.23;55.91;101218.06;5008645;28;45515;-70
2021/07/23 07:14:28;;;;;;;;;21.00;17.00;;;;;23.32;55.25;101217.56;5007684;28;45865;-71
2021/07/23 07:16:55;;;;;;;;;21.00;20.00;;;;;23.44;54.69;101214.13;5009072;28;45566;-70
2021/07/23 07:19:22;;;;;;;;;20.00;16.25;;;;;23.56;54.75;101210.47;5009094;28;45473;-71
2021/07/23 07:21:48;;;;;;;;;21.00;17.75;;;;;23.75;54.59;101205.94;5004208;28;45621;-71
2021/07/23 07:24:18;;;;;;;;;23.25;19.00;;;;;23.96;54.62;101207.34;5006187;28;45590;-71
2021/07/23 07:26:45;;;;;;;;;19.25;15.25;;;;;24.13;53.57;101207.53;5006978;28;45436;-70
2021/07/23 07:29:12;;;;;;;;;21.75;18.50;;;;;24.25;53.11;101194.91;5009794;28;45912;-71
2021/07/23 07:31:37;;;;;;;;;21.00;19.00;;;;;24.30;52.76;101206.91;5003795;28;45704;-70
2021/07/23 07:34:03;;;;;;;;;19.25;17.00;;;;;24.24;52.90;101201.38;5008268;28;45649;-72
2021/07/23 07:36:29;;;;;;;;;22.50;17.00;;;;;24.32;53.24;101208.31;5004736;28;45614;-71
2021/07/23 07:38:58;;;;;;;;;23.00;16.75;;;;;24.41;52.72;101214.25;5003844;28;45506;-71
2021/07/23 07:41:24;;;;;;;;;21.75;19.00;;;;;24.61;52.64;101219.38;5008162;28;45914;-70
2021/07/23 07:43:50;;;;;;;;;18.75;16.25;;;;;24.91;52.44;101218.50;5007384;28;45423;-71
2021/07/23 07:46:15;;;;;;;;;21.00;17.75;;;;;25.28;51.66;101219.16;5008868;28;45622;-70
2021/07/23 07:48:41;;;;;;;;;18.50;18.50;;;;;25.78;49.49;101215.91;5008058;28;46630;-69
2021/07/23 07:51:09;;;;;;;;;18.00;17.25;;;;;27.18;48.69;101210.91;4998839;28;45541;-69
2021/07/23 07:53:36;;;;;;;;;16.50;16.25;;;;;29.08;45.06;101203.00;5004759;28;45578;-69
2021/07/23 07:56:05;;;;;;;;;21.25;18.75;;;;;29.91;41.79;101202.34;5003585;28;45574;-71
2021/07/23 07:58:32;;;;;;;;;20.75;17.00;;;;;31.40;40.79;101206.00;5002979;28;45402;-71
2021/07/23 08:00:57;;;;;;;;;19.25;17.50;;;;;33.07;38.79;101211.84;5009059;28;46068;-71
2021/07/23 08:03:23;;;;;;;;;17.00;16.00;;;;;34.49;36.36;101213.88;5003863;28;45452;-71
2021/07/23 08:05:48;;;;;;;;;18.75;17.00;;;;;35.22;34.28;101219.81;5001811;28;45527;-72
2021/07/23 08:08:14;;;;;;;;;19.50;18.25;;;;;36.55;33.70;101211.44;5005870;28;45597;-70
2021/07/23 08:10:45;;;;;;;;;16.25;15.50;;;;;38.48;31.35;101212.59;5005407;28;45462;-71
2021/07/23 08:13:11;;;;;;;;;20.50;17.50;;;;;40.28;29.96;101208.81;5009088;28;45526;-72
2021/07/23 08:15:37;;;;;;;;;20.50;16.75;;;;;41.77;27.83;101223.34;5010420;28;45472;-73
2021/07/23 08:18:03;;;;;;;;;17.75;15.75;;;;;43.19;23.63;101213.78;4982047;28;45585;-72
2021/07/23 08:20:29;;;;;;;;;22.25;18.25;;;;;44.24;24.22;101203.75;5005631;28;46218;-70
2021/07/23 08:22:55;;;;;;;;;17.25;16.50;;;;;45.06;20.99;101210.84;5004763;28;45541;-72
2021/07/23 08:25:20;;;;;;;;;16.25;13.50;;;;;44.91;19.20;101197.88;5010669;28;45588;-73
2021/07/23 08:27:45;;;;;;;;;20.75;16.75;;;;;44.20;20.60;101192.56;5004330;28;45595;-72
2021/07/23 08:30:11;;;;;;;;;16.00;13.75;;;;;43.48;20.53;101190.22;5008810;28;46077;-71
2021/07/23 08:32:37;;;;;;;;;15.50;13.00;;;;;42.71;20.29;101199.06;4986127;28;45569;-73
2021/07/23 08:35:06;;;;;;;;;19.50;17.50;;;;;42.55;21.05;101199.03;5007149;28;45683;-71
2021/07/23 08:37:33;;;;;;;;;16.25;15.25;;;;;43.50;22.68;101195.41;5008138;28;45470;-73
2021/07/23 08:40:00;;;;;;;;;16.25;14.00;;;;;44.26;20.08;101195.84;5009250;28;45495;-70
2021/07/23 08:42:31;;;;;;;;;15.25;15.00;;;;;44.29;21.12;101194.31;5003078;28;45609;-71
2021/07/23 08:44:58;;;;;;;;;15.75;14.75;;;;;43.65;21.59;101194.63;5012455;28;45380;-73
2021/07/23 08:47:24;;;;;;;;;15.50;13.75;;;;;43.30;19.94;101184.28;5006339;28;45519;-73
2021/07/23 08:49:51;;;;;;;;;17.50;15.75;;;;;43.57;19.74;101184.44;5005090;28;46089;-72
2021/07/23 08:52:17;;;;;;;;;14.00;13.50;;;;;43.54;21.28;101176.84;5012958;28;45478;-71
2021/07/23 08:54:44;;;;;;;;;19.50;16.00;;;;;42.71;22.22;101182.38;5013687;28;45466;-71
2021/07/23 08:57:10;;;;;;;;;14.50;13.25;;;;;42.87;22.02;101177.66;5005430;28;45569;-72
2021/07/23 08:59:37;;;;;;;;;17.75;16.50;;;;;43.55;21.65;101181.25;4998617;28;47563;-71
2021/07/23 09:02:05;;;;;;;;;17.25;16.00;;;;;44.12;21.17;101176.91;5009918;28;45487;-70
2021/07/23 09:04:36;;;;;;;;;18.25;16.75;;;;;44.81;19.13;101168.66;5012976;28;45633;-73
2021/07/23 09:07:14;;;;;;;;;17.50;16.75;;;;;44.71;18.75;101165.63;5004448;28;45272;-70
2021/07/23 09:09:40;;;;;;;;;14.75;14.50;;;;;43.93;20.75;101163.78;5010140;28;46037;-70
2021/07/23 09:12:06;;;;;;;;;16.75;15.25;;;;;43.62;20.78;101169.47;5009310;28;45566;-70
2021/07/23 09:14:32;;;;;;;;;18.00;15.50;;;;;43.23;19.46;101169.38;5014609;28;45589;-72
2021/07/23 09:16:58;;;;;;;;;16.00;12.25;;;;;42.76;21.01;101165.44;5011258;28;45434;-71
2021/07/23 09:19:23;;;;;;;;;19.50;17.25;;;;;42.72;21.05;101161.75;5014134;28;46195;-68
2021/07/23 09:21:57;;;;;;;;;15.00;14.00;;;;;42.37;22.06;101156.91;5009672;28;45518;-71
2021/07/23 09:24:23;;;;;;;;;15.50;14.00;;;;;43.28;21.81;101142.13;5013026;28;45570;-71
2021/07/23 09:26:49;;;;;;;;;16.75;16.00;;;;;43.92;19.75;101148.25;5009034;28;45649;-70
2021/07/23 09:29:14;;;;;;;;;15.75;14.50;;;;;44.29;20.98;101144.19;5004574;28;45431;-71
2021/07/23 09:32:00;;;;;;;;;16.25;14.75;;;;;44.90;20.11;101143.28;5006697;28;45432;-73
2021/07/23 09:34:32;;;;;;;;;16.75;16.00;;;;;45.53;20.02;101139.03;5010545;28;45468;-72
2021/07/23 09:37:11;;;;;;;;;18.75;16.75;;;;;45.41;19.82;101140.06;5006813;28;45604;-71
2021/07/23 09:39:39;;;;;;;;;19.25;15.75;;;;;44.02;19.74;101132.97;5006111;28;45710;-73
2021/07/23 09:42:04;;;;;;;;;15.50;14.75;;;;;42.93;21.26;101128.97;5000623;28;45566;-69
2021/07/23 09:44:30;;;;;;;;;18.25;16.75;;;;;42.60;19.57;101139.63;5002613;28;45469;-70
2021/07/23 09:46:55;;;;;;;;;16.25;16.25;;;;;42.08;22.02;101127.53;5015878;28;45391;-71
2021/07/23 09:49:29;;;;;;;;;17.25;15.00;;;;;42.04;23.35;101113.56;5012995;28;46211;-72
2021/07/23 09:51:57;;;;;;;;;16.00;16.00;;;;;41.96;21.01;101108.16;5009114;28;45620;-70
2021/07/23 09:54:23;;;;;;;;;17.00;16.00;;;;;41.32;23.17;101107.84;5007634;28;45486;-72
2021/07/23 09:56:49;;;;;;;;;16.00;16.00;;;;;40.52;21.64;101109.22;5004325;28;45419;-71
2021/07/23 09:59:22;;;;;;;;;13.50;13.50;;;;;38.75;22.68;101096.53;5005220;28;45535;-73
2021/07/23 10:01:57;;;;;;;;;15.00;14.00;;;;;37.38;25.71;101086.94;5011042;28;45447;-70
2021/07/23 10:04:32;;;;;;;;;15.75;15.00;;;;;36.89;26.54;101081.44;5009094;28;45522;-72
2021/07/23 10:07:24;;;;;;;;;17.75;17.50;;;;;36.64;26.62;101074.72;5007583;28;45545;-71
2021/07/23 10:09:52;;;;;;;;;14.50;14.50;;;;;36.35;27.45;101066.94;5008668;28;45676;-70
2021/07/23 10:12:18;;;;;;;;;18.50;17.00;;;;;36.13;27.86;101054.06;5012104;28;45409;-71
2021/07/23 10:14:48;;;;;;;;;10.50;9.75;;;;;36.15;27.53;101049.03;5007642;28;45729;-72
2021/07/23 10:17:14;;;;;;;;;20.25;17.50;;;;;36.11;28.03;101042.56;5007463;28;45626;-71
2021/07/23 10:19:40;;;;;;;;;18.75;17.50;;;;;36.05;28.44;101043.75;5007658;28;45816;-72
2021/07/23 10:22:07;;;;;;;;;17.25;15.75;;;;;35.91;28.37;101032.84;5010919;28;45550;-68
2021/07/23 10:24:36;;;;;;;;;15.00;14.25;;;;;35.57;27.62;101031.44;5002095;28;45520;-71
2021/07/23 10:27:11;;;;;;;;;14.75;13.25;;;;;35.01;28.10;101018.91;5006181;28;45625;-71
2021/07/23 10:29:44;;;;;;;;;16.25;15.75;;;;;34.93;28.97;101022.41;4998197;28;46166;-69
2021/07/23 10:32:35;;;;;;;;;15.00;13.00;;;;;34.55;28.83;101017.91;5009641;28;45440;-72
2021/07/23 10:35:23;;;;;;;;;17.00;14.75;;;;;33.89;28.83;101010.84;5012093;28;45705;-71
2021/07/23 10:37:50;;;;;;;;;13.75;11.50;;;;;33.69;29.98;101004.56;4998805;28;45518;-72
2021/07/23 10:40:18;;;;;;;;;14.25;12.50;;;;;33.86;29.87;101001.28;5007679;28;45440;-72
2021/07/23 10:42:45;;;;;;;;;13.50;12.50;;;;;34.28;29.34;100993.19;5002340;28;45407;-71
2021/07/23 10:45:14;;;;;;;;;12.25;10.25;;;;;34.98;28.93;100986.59;5001608;28;45565;-69
2021/07/23 10:47:41;;;;;;;;;14.00;12.00;;;;;35.32;27.21;100989.69;5005977;28;45482;-71
2021/07/23 10:50:09;;;;;;;;;13.00;11.50;;;;;35.58;28.03;100972.59;5010360;28;45501;-69
2021/07/23 10:52:36;;;;;;;;;10.50;9.50;;;;;35.89;27.03;100978.16;5009718;28;45451;-72
2021/07/23 10:55:10;;;;;;;;;11.50;10.50;;;;;36.09;26.80;100976.84;5005800;28;45550;-69
2021/07/23 10:57:36;;;;;;;;;13.00;12.25;;;;;36.20;26.94;100974.63;5001473;28;45681;-71
2021/07/23 11:00:04;;;;;;;;;15.00;12.50;;;;;36.05;26.61;100970.31;4993565;28;48185;-70
2021/07/23 11:02:29;;;;;;;;;14.50;13.25;;;;;36.08;26.18;100961.50;5012723;28;45514;-69
2021/07/23 11:05:08;;;;;;;;;15.50;13.75;;;;;36.16;27.56;100960.72;5002640;28;45697;-71
2021/07/23 11:07:33;;;;;;;;;13.75;13.25;;;;;36.58;26.97;100960.41;5009266;28;45468;-72